SKW4781 KSBP-KLAX
Flight info
| Callsign | SKW4781 |
|---|---|
| Flight time | N/A |
| Altitude | 17000 |
| Route | RZS RYDRR RYDRR2 |
| Aircraft | E75L/M-SDE3GILORVW/S |
Departure
| Time | 2026-04-21 00:44 |
|---|---|
| Airport | San Luis County Regional Airport (KSBP) |
Arrival
| Time | N/A |
|---|---|
| Airport | Los Angeles International Airport (KLAX) |
| Time | Latitude | Longitude | Altitude | Speed | Heading |
|---|---|---|---|---|---|
| 2026-04-21 00:23 | 35.23784 | -120.63751 | 201 ft | 0 kts | 3° |
| 2026-04-21 00:35 | 35.23775 | -120.63750 | 214 ft | 2 kts | 347° |
| 2026-04-21 00:35 | 35.23761 | -120.63740 | 213 ft | 2 kts | 299° |
| 2026-04-21 00:35 | 35.23761 | -120.63722 | 203 ft | 1 kts | 236° |
| 2026-04-21 00:36 | 35.23762 | -120.63720 | 202 ft | 0 kts | 224° |
| 2026-04-21 00:39 | 35.23753 | -120.63728 | 209 ft | 2 kts | 218° |
| 2026-04-21 00:39 | 35.23745 | -120.63736 | 210 ft | 1 kts | 218° |
| 2026-04-21 00:39 | 35.23730 | -120.63750 | 201 ft | 5 kts | 216° |
| 2026-04-21 00:39 | 35.23674 | -120.63784 | 203 ft | 11 kts | 172° |
| 2026-04-21 00:40 | 35.23611 | -120.63702 | 207 ft | 16 kts | 123° |
| 2026-04-21 00:40 | 35.23544 | -120.63581 | 210 ft | 17 kts | 126° |
| 2026-04-21 00:40 | 35.23478 | -120.63467 | 210 ft | 17 kts | 126° |
| 2026-04-21 00:40 | 35.23417 | -120.63366 | 210 ft | 12 kts | 124° |
| 2026-04-21 00:41 | 35.23405 | -120.63342 | 219 ft | 0 kts | 120° |
| 2026-04-21 00:42 | 35.23396 | -120.63323 | 218 ft | 3 kts | 122° |
| 2026-04-21 00:42 | 35.23389 | -120.63310 | 216 ft | 2 kts | 122° |
| 2026-04-21 00:42 | 35.23363 | -120.63266 | 215 ft | 7 kts | 133° |
| 2026-04-21 00:43 | 35.23318 | -120.63247 | 217 ft | 9 kts | 194° |
| 2026-04-21 00:43 | 35.23287 | -120.63311 | 215 ft | 12 kts | 297° |
| 2026-04-21 00:43 | 35.23429 | -120.63576 | 208 ft | 78 kts | 305° |
| 2026-04-21 00:43 | 35.23699 | -120.64066 | 206 ft | 131 kts | 302° |
| 2026-04-21 00:44 | 35.24556 | -120.65545 | 894 ft | 171 kts | 300° |
| 2026-04-21 00:44 | 35.25266 | -120.66820 | 1694 ft | 203 kts | 299° |
| 2026-04-21 00:44 | 35.26139 | -120.68399 | 2381 ft | 222 kts | 301° |
| 2026-04-21 00:45 | 35.27592 | -120.70921 | 3075 ft | 232 kts | 300° |
| 2026-04-21 00:45 | 35.28564 | -120.72564 | 3546 ft | 251 kts | 301° |
| 2026-04-21 00:45 | 35.29618 | -120.74342 | 4225 ft | 265 kts | 302° |
| 2026-04-21 00:45 | 35.30553 | -120.76312 | 4980 ft | 268 kts | 281° |
| 2026-04-21 00:46 | 35.30593 | -120.78529 | 5892 ft | 259 kts | 250° |
| 2026-04-21 00:46 | 35.29666 | -120.80337 | 6761 ft | 252 kts | 218° |
| 2026-04-21 00:46 | 35.28071 | -120.81177 | 7518 ft | 253 kts | 186° |
| 2026-04-21 00:46 | 35.26342 | -120.80744 | 8319 ft | 262 kts | 154° |
| 2026-04-21 00:47 | 35.25046 | -120.79139 | 9126 ft | 277 kts | 124° |
| 2026-04-21 00:47 | 35.24419 | -120.76861 | 9829 ft | 287 kts | 110° |
| 2026-04-21 00:47 | 35.23943 | -120.74442 | 10270 ft | 300 kts | 112° |
| 2026-04-21 00:47 | 35.22953 | -120.72204 | 10593 ft | 301 kts | 137° |
| 2026-04-21 00:48 | 35.21466 | -120.70407 | 11262 ft | 301 kts | 142° |
| 2026-04-21 00:48 | 35.19921 | -120.68673 | 11951 ft | 303 kts | 143° |
| 2026-04-21 00:48 | 35.18357 | -120.66918 | 12644 ft | 307 kts | 143° |
| 2026-04-21 00:48 | 35.16780 | -120.65122 | 13345 ft | 311 kts | 143° |
| 2026-04-21 00:49 | 35.15189 | -120.63303 | 14053 ft | 314 kts | 143° |
| 2026-04-21 00:49 | 35.13590 | -120.61463 | 14751 ft | 317 kts | 143° |
| 2026-04-21 00:49 | 35.11992 | -120.59569 | 15447 ft | 323 kts | 141° |
| 2026-04-21 00:49 | 35.10467 | -120.57535 | 16114 ft | 327 kts | 139° |
| 2026-04-21 00:50 | 35.08933 | -120.55454 | 16720 ft | 333 kts | 139° |
| 2026-04-21 00:50 | 35.07400 | -120.53354 | 16855 ft | 330 kts | 139° |
| 2026-04-21 00:50 | 35.05861 | -120.51254 | 16934 ft | 334 kts | 139° |
| 2026-04-21 00:50 | 35.04312 | -120.49139 | 16966 ft | 334 kts | 139° |
| 2026-04-21 00:51 | 35.02763 | -120.47026 | 16965 ft | 334 kts | 139° |
| 2026-04-21 00:51 | 35.01226 | -120.44935 | 16980 ft | 335 kts | 139° |
| 2026-04-21 00:51 | 34.99674 | -120.42816 | 16990 ft | 335 kts | 139° |
| 2026-04-21 00:51 | 34.98116 | -120.40694 | 16984 ft | 335 kts | 139° |
| 2026-04-21 00:52 | 34.96558 | -120.38575 | 16974 ft | 336 kts | 139° |
| 2026-04-21 00:52 | 34.94995 | -120.36452 | 16998 ft | 336 kts | 139° |
| 2026-04-21 00:52 | 34.93434 | -120.34330 | 16982 ft | 336 kts | 139° |
| 2026-04-21 00:52 | 34.91875 | -120.32212 | 16977 ft | 336 kts | 139° |
| 2026-04-21 00:53 | 34.90314 | -120.30094 | 16987 ft | 336 kts | 139° |
| 2026-04-21 00:53 | 34.88754 | -120.27978 | 16987 ft | 336 kts | 139° |
| 2026-04-21 00:53 | 34.87188 | -120.25854 | 16980 ft | 336 kts | 139° |
| 2026-04-21 00:53 | 34.85641 | -120.23763 | 16981 ft | 338 kts | 139° |
| 2026-04-21 00:54 | 34.84070 | -120.21632 | 16985 ft | 338 kts | 138° |
| 2026-04-21 00:54 | 34.82499 | -120.19504 | 16970 ft | 337 kts | 139° |
| 2026-04-21 00:54 | 34.80928 | -120.17381 | 16976 ft | 337 kts | 139° |
| 2026-04-21 00:54 | 34.79356 | -120.15259 | 16988 ft | 338 kts | 139° |
| 2026-04-21 00:55 | 34.77783 | -120.13134 | 16978 ft | 337 kts | 139° |
| 2026-04-21 00:55 | 34.76208 | -120.11007 | 16955 ft | 338 kts | 139° |
| 2026-04-21 00:55 | 34.74633 | -120.08885 | 16971 ft | 338 kts | 139° |
| 2026-04-21 00:55 | 34.73056 | -120.06758 | 16963 ft | 339 kts | 139° |
| 2026-04-21 00:56 | 34.71481 | -120.04632 | 16970 ft | 338 kts | 139° |
| 2026-04-21 00:56 | 34.69901 | -120.02509 | 16960 ft | 339 kts | 139° |
| 2026-04-21 00:56 | 34.68318 | -120.00370 | 16981 ft | 340 kts | 138° |
| 2026-04-21 00:56 | 34.66732 | -119.98245 | 17005 ft | 340 kts | 139° |
| 2026-04-21 00:57 | 34.65143 | -119.96114 | 17002 ft | 340 kts | 139° |
| 2026-04-21 00:57 | 34.63556 | -119.93980 | 16994 ft | 340 kts | 139° |
| 2026-04-21 00:57 | 34.61975 | -119.91852 | 17012 ft | 340 kts | 138° |
| 2026-04-21 00:57 | 34.60391 | -119.89729 | 16987 ft | 339 kts | 139° |
| 2026-04-21 00:58 | 34.58800 | -119.87603 | 16995 ft | 339 kts | 139° |
| 2026-04-21 00:58 | 34.57219 | -119.85483 | 17004 ft | 339 kts | 138° |
| 2026-04-21 00:58 | 34.55655 | -119.83388 | 17001 ft | 340 kts | 139° |
| 2026-04-21 00:58 | 34.54068 | -119.81265 | 16992 ft | 340 kts | 138° |
| 2026-04-21 00:59 | 34.52487 | -119.79135 | 16984 ft | 340 kts | 137° |
| 2026-04-21 00:59 | 34.51033 | -119.76841 | 16971 ft | 345 kts | 132° |
| 2026-04-21 00:59 | 34.49750 | -119.74368 | 17022 ft | 349 kts | 126° |
| 2026-04-21 00:59 | 34.48559 | -119.71802 | 17021 ft | 349 kts | 126° |
| 2026-04-21 01:00 | 34.47381 | -119.69228 | 17007 ft | 348 kts | 125° |
| 2026-04-21 01:00 | 34.46214 | -119.66651 | 16984 ft | 350 kts | 125° |
| 2026-04-21 01:00 | 34.45047 | -119.64075 | 16751 ft | 344 kts | 125° |
| 2026-04-21 01:00 | 34.43918 | -119.61575 | 16488 ft | 333 kts | 126° |
| 2026-04-21 01:01 | 34.42817 | -119.59153 | 16231 ft | 323 kts | 126° |
| 2026-04-21 01:01 | 34.41748 | -119.56802 | 15971 ft | 315 kts | 126° |
| 2026-04-21 01:01 | 34.40692 | -119.54488 | 15721 ft | 314 kts | 126° |
| 2026-04-21 01:01 | 34.39629 | -119.52162 | 15460 ft | 316 kts | 125° |
| 2026-04-21 01:02 | 34.38570 | -119.49831 | 15224 ft | 316 kts | 125° |
| 2026-04-21 01:02 | 34.37511 | -119.47505 | 14910 ft | 315 kts | 125° |
| 2026-04-21 01:02 | 34.36458 | -119.45195 | 14579 ft | 312 kts | 125° |
| 2026-04-21 01:02 | 34.35410 | -119.42902 | 14266 ft | 309 kts | 125° |
| 2026-04-21 01:03 | 34.34373 | -119.40632 | 13980 ft | 308 kts | 124° |
| 2026-04-21 01:03 | 34.33339 | -119.38371 | 13645 ft | 306 kts | 125° |
| 2026-04-21 01:03 | 34.32311 | -119.36119 | 13269 ft | 305 kts | 124° |
| 2026-04-21 01:03 | 34.31289 | -119.33882 | 12918 ft | 302 kts | 124° |
| 2026-04-21 01:04 | 34.30281 | -119.31697 | 12517 ft | 299 kts | 124° |
| 2026-04-21 01:04 | 34.29269 | -119.29472 | 12128 ft | 297 kts | 124° |
| 2026-04-21 01:04 | 34.28280 | -119.27329 | 11787 ft | 295 kts | 124° |
| 2026-04-21 01:04 | 34.27283 | -119.25157 | 11457 ft | 294 kts | 124° |
| 2026-04-21 01:05 | 34.26291 | -119.23002 | 11150 ft | 292 kts | 123° |
| 2026-04-21 01:05 | 34.25309 | -119.20856 | 11064 ft | 291 kts | 123° |
| 2026-04-21 01:05 | 34.24323 | -119.18709 | 11027 ft | 293 kts | 123° |
| 2026-04-21 01:05 | 34.23334 | -119.16559 | 11003 ft | 293 kts | 123° |
| 2026-04-21 01:06 | 34.22343 | -119.14407 | 10991 ft | 293 kts | 123° |
| 2026-04-21 01:06 | 34.21352 | -119.12256 | 10991 ft | 293 kts | 123° |
| 2026-04-21 01:06 | 34.20361 | -119.10110 | 10990 ft | 292 kts | 124° |
| 2026-04-21 01:06 | 34.19347 | -119.07981 | 10940 ft | 293 kts | 124° |
| 2026-04-21 01:07 | 34.18426 | -119.05817 | 10841 ft | 291 kts | 120° |
| 2026-04-21 01:07 | 34.17568 | -119.03647 | 10701 ft | 281 kts | 120° |
| 2026-04-21 01:07 | 34.16748 | -119.01536 | 10512 ft | 276 kts | 119° |
| 2026-04-21 01:07 | 34.15925 | -118.99432 | 10415 ft | 278 kts | 120° |
| 2026-04-21 01:08 | 34.15095 | -118.97318 | 10285 ft | 278 kts | 119° |
| 2026-04-21 01:08 | 34.14272 | -118.95205 | 10165 ft | 278 kts | 120° |
| 2026-04-21 01:08 | 34.13452 | -118.93107 | 10024 ft | 276 kts | 119° |
| 2026-04-21 01:08 | 34.12640 | -118.91015 | 9971 ft | 275 kts | 120° |
| 2026-04-21 01:09 | 34.11817 | -118.88924 | 9982 ft | 276 kts | 120° |
| 2026-04-21 01:09 | 34.10988 | -118.86829 | 9959 ft | 276 kts | 120° |
| 2026-04-21 01:09 | 34.10164 | -118.84732 | 9983 ft | 277 kts | 119° |
| 2026-04-21 01:09 | 34.09355 | -118.82655 | 9997 ft | 277 kts | 119° |
| 2026-04-21 01:10 | 34.08533 | -118.80552 | 9994 ft | 277 kts | 119° |
| 2026-04-21 01:10 | 34.07707 | -118.78459 | 9993 ft | 277 kts | 120° |
| 2026-04-21 01:10 | 34.06880 | -118.76356 | 9964 ft | 278 kts | 119° |
| 2026-04-21 01:10 | 34.06058 | -118.74254 | 9846 ft | 277 kts | 119° |
| 2026-04-21 01:11 | 34.05237 | -118.72161 | 9724 ft | 275 kts | 119° |
| 2026-04-21 01:11 | 34.04421 | -118.70074 | 9626 ft | 275 kts | 118° |
| 2026-04-21 01:11 | 34.03706 | -118.67929 | 9503 ft | 277 kts | 113° |
| 2026-04-21 01:11 | 34.03135 | -118.65711 | 9308 ft | 276 kts | 110° |
| 2026-04-21 01:12 | 34.02723 | -118.63452 | 9097 ft | 276 kts | 102° |
| 2026-04-21 01:12 | 34.02472 | -118.61156 | 8899 ft | 276 kts | 101° |
| 2026-04-21 01:12 | 34.02252 | -118.58882 | 8687 ft | 269 kts | 100° |
| 2026-04-21 01:12 | 34.02047 | -118.56684 | 8458 ft | 259 kts | 100° |
| 2026-04-21 01:13 | 34.01850 | -118.54561 | 8183 ft | 252 kts | 100° |
| 2026-04-21 01:13 | 34.01655 | -118.52484 | 7920 ft | 247 kts | 100° |
| 2026-04-21 01:13 | 34.01464 | -118.50446 | 7650 ft | 242 kts | 100° |
| 2026-04-21 01:13 | 34.01281 | -118.48457 | 7385 ft | 237 kts | 98° |
| 2026-04-21 01:14 | 34.01229 | -118.46472 | 7131 ft | 239 kts | 92° |
| 2026-04-21 01:14 | 34.01307 | -118.44476 | 6819 ft | 238 kts | 86° |
| 2026-04-21 01:14 | 34.01577 | -118.42498 | 6511 ft | 238 kts | 82° |
| 2026-04-21 01:14 | 34.01901 | -118.40549 | 6207 ft | 237 kts | 81° |
| 2026-04-21 01:15 | 34.02234 | -118.38629 | 6085 ft | 231 kts | 81° |
| 2026-04-21 01:15 | 34.02574 | -118.36722 | 6043 ft | 235 kts | 82° |
| 2026-04-21 01:15 | 34.02826 | -118.34785 | 6021 ft | 233 kts | 88° |
| 2026-04-21 01:15 | 34.03071 | -118.32845 | 6013 ft | 235 kts | 82° |
| 2026-04-21 01:16 | 34.03352 | -118.30915 | 5944 ft | 237 kts | 82° |
| 2026-04-21 01:16 | 34.03653 | -118.28961 | 5714 ft | 234 kts | 81° |
| 2026-04-21 01:16 | 34.03955 | -118.27048 | 5490 ft | 232 kts | 81° |
| 2026-04-21 01:16 | 34.04243 | -118.25146 | 5266 ft | 230 kts | 82° |
| 2026-04-21 01:17 | 34.04517 | -118.23277 | 5057 ft | 229 kts | 82° |
| 2026-04-21 01:17 | 34.04792 | -118.21391 | 4848 ft | 228 kts | 82° |
| 2026-04-21 01:17 | 34.04907 | -118.19500 | 4600 ft | 225 kts | 103° |
| 2026-04-21 01:17 | 34.04192 | -118.17862 | 4349 ft | 224 kts | 140° |
| 2026-04-21 01:18 | 34.02827 | -118.17103 | 4133 ft | 216 kts | 176° |
| 2026-04-21 01:18 | 34.01388 | -118.17542 | 3885 ft | 219 kts | 214° |
| 2026-04-21 01:18 | 34.00288 | -118.18811 | 3638 ft | 219 kts | 228° |
| 2026-04-21 01:18 | 33.99299 | -118.20207 | 3377 ft | 220 kts | 230° |
| 2026-04-21 01:19 | 33.98302 | -118.21583 | 3067 ft | 217 kts | 224° |
| 2026-04-21 01:19 | 33.97298 | -118.22911 | 2695 ft | 211 kts | 241° |
| 2026-04-21 01:19 | 33.96920 | -118.24550 | 2784 ft | 212 kts | 262° |
| 2026-04-21 01:19 | 33.96711 | -118.26460 | 2147 ft | 224 kts | 263° |
| 2026-04-21 01:20 | 33.96560 | -118.28104 | 2079 ft | 175 kts | 263° |
| 2026-04-21 01:20 | 33.96436 | -118.29580 | 2016 ft | 189 kts | 263° |
| 2026-04-21 01:20 | 33.96320 | -118.31138 | 1881 ft | 180 kts | 263° |
| 2026-04-21 01:20 | 33.96222 | -118.32524 | 1491 ft | 156 kts | 263° |